sensor_id;sensor_type;location;lat;lon;timestamp;P1;durP1;ratioP1;P2;durP2;ratioP2
75441;SDS011;64019;48.312;14.226;2022-10-31T00:01:11;63.73;;;22.83;;
75441;SDS011;64019;48.312;14.226;2022-10-31T00:03:39;61.90;;;24.27;;
75441;SDS011;64019;48.312;14.226;2022-10-31T00:06:04;59.20;;;21.50;;
75441;SDS011;64019;48.312;14.226;2022-10-31T00:08:30;67.50;;;21.83;;
75441;SDS011;64019;48.312;14.226;2022-10-31T00:10:56;54.90;;;22.17;;
75441;SDS011;64019;48.312;14.226;2022-10-31T00:13:21;52.93;;;21.57;;
75441;SDS011;64019;48.312;14.226;2022-10-31T00:15:47;57.73;;;23.20;;
75441;SDS011;64019;48.312;14.226;2022-10-31T00:18:13;69.70;;;23.50;;
75441;SDS011;64019;48.312;14.226;2022-10-31T00:20:38;61.73;;;21.97;;
75441;SDS011;64019;48.312;14.226;2022-10-31T00:23:04;60.43;;;23.13;;
75441;SDS011;64019;48.312;14.226;2022-10-31T00:25:34;49.97;;;21.83;;
75441;SDS011;64019;48.312;14.226;2022-10-31T00:28:03;54.30;;;22.73;;
75441;SDS011;64019;48.312;14.226;2022-10-31T00:30:30;62.57;;;21.73;;
75441;SDS011;64019;48.312;14.226;2022-10-31T00:32:56;45.23;;;20.27;;
75441;SDS011;64019;48.312;14.226;2022-10-31T00:35:21;51.07;;;21.20;;
75441;SDS011;64019;48.312;14.226;2022-10-31T00:37:47;50.80;;;21.47;;
75441;SDS011;64019;48.312;14.226;2022-10-31T00:40:13;50.60;;;19.50;;
75441;SDS011;64019;48.312;14.226;2022-10-31T00:42:39;45.90;;;21.80;;
75441;SDS011;64019;48.312;14.226;2022-10-31T00:45:07;51.83;;;21.03;;
75441;SDS011;64019;48.312;14.226;2022-10-31T00:47:33;45.67;;;20.17;;
75441;SDS011;64019;48.312;14.226;2022-10-31T00:49:59;48.40;;;21.27;;
75441;SDS011;64019;48.312;14.226;2022-10-31T00:52:25;50.30;;;20.57;;
75441;SDS011;64019;48.312;14.226;2022-10-31T00:54:51;56.10;;;21.00;;
75441;SDS011;64019;48.312;14.226;2022-10-31T00:57:16;57.77;;;22.30;;
75441;SDS011;64019;48.312;14.226;2022-10-31T00:59:42;59.13;;;21.00;;
75441;SDS011;64019;48.312;14.226;2022-10-31T01:02:08;52.57;;;20.40;;
75441;SDS011;64019;48.312;14.226;2022-10-31T01:04:33;60.13;;;21.40;;
75441;SDS011;64019;48.312;14.226;2022-10-31T01:06:59;50.63;;;20.30;;
75441;SDS011;64019;48.312;14.226;2022-10-31T01:09:24;50.73;;;21.53;;
75441;SDS011;64019;48.312;14.226;2022-10-31T01:11:50;53.27;;;21.50;;
75441;SDS011;64019;48.312;14.226;2022-10-31T01:14:16;56.40;;;21.47;;
75441;SDS011;64019;48.312;14.226;2022-10-31T01:16:41;49.83;;;21.03;;
75441;SDS011;64019;48.312;14.226;2022-10-31T01:19:07;52.43;;;20.60;;
75441;SDS011;64019;48.312;14.226;2022-10-31T01:21:33;54.33;;;20.37;;
75441;SDS011;64019;48.312;14.226;2022-10-31T01:23:59;66.80;;;22.43;;
75441;SDS011;64019;48.312;14.226;2022-10-31T01:26:28;51.13;;;19.87;;
75441;SDS011;64019;48.312;14.226;2022-10-31T01:28:57;55.77;;;20.90;;
75441;SDS011;64019;48.312;14.226;2022-10-31T01:31:28;65.07;;;20.93;;
75441;SDS011;64019;48.312;14.226;2022-10-31T01:33:57;56.53;;;19.07;;
75441;SDS011;64019;48.312;14.226;2022-10-31T01:36:30;43.83;;;18.77;;
75441;SDS011;64019;48.312;14.226;2022-10-31T01:39:04;50.97;;;19.43;;
75441;SDS011;64019;48.312;14.226;2022-10-31T01:41:36;52.10;;;20.90;;
75441;SDS011;64019;48.312;14.226;2022-10-31T01:52:04;52.87;;;18.70;;
75441;SDS011;64019;48.312;14.226;2022-10-31T01:54:41;55.53;;;18.37;;
75441;SDS011;64019;48.312;14.226;2022-10-31T01:57:11;48.07;;;17.13;;
75441;SDS011;64019;48.312;14.226;2022-10-31T01:59:40;49.27;;;17.90;;
75441;SDS011;64019;48.312;14.226;2022-10-31T02:02:11;66.83;;;19.83;;
75441;SDS011;64019;48.312;14.226;2022-10-31T02:04:38;53.23;;;19.40;;
75441;SDS011;64019;48.312;14.226;2022-10-31T02:07:06;48.50;;;18.27;;
75441;SDS011;64019;48.312;14.226;2022-10-31T02:09:43;44.67;;;17.70;;
75441;SDS011;64019;48.312;14.226;2022-10-31T02:12:12;45.47;;;18.50;;
75441;SDS011;64019;48.312;14.226;2022-10-31T02:14:39;47.30;;;18.03;;
75441;SDS011;64019;48.312;14.226;2022-10-31T02:17:05;51.60;;;18.90;;
75441;SDS011;64019;48.312;14.226;2022-10-31T02:22:33;56.80;;;20.47;;
75441;SDS011;64019;48.312;14.226;2022-10-31T02:25:19;52.87;;;19.77;;
75441;SDS011;64019;48.312;14.226;2022-10-31T02:28:40;56.30;;;20.07;;
75441;SDS011;64019;48.312;14.226;2022-10-31T02:31:36;59.07;;;19.27;;
75441;SDS011;64019;48.312;14.226;2022-10-31T02:34:18;51.03;;;19.43;;
75441;SDS011;64019;48.312;14.226;2022-10-31T02:39:30;52.87;;;20.63;;
75441;SDS011;64019;48.312;14.226;2022-10-31T02:45:07;52.90;;;20.27;;
75441;SDS011;64019;48.312;14.226;2022-10-31T02:47:40;52.27;;;19.83;;
75441;SDS011;64019;48.312;14.226;2022-10-31T02:50:12;56.17;;;19.57;;
75441;SDS011;64019;48.312;14.226;2022-10-31T02:52:39;55.90;;;18.50;;
75441;SDS011;64019;48.312;14.226;2022-10-31T02:55:09;53.33;;;18.83;;
75441;SDS011;64019;48.312;14.226;2022-10-31T02:58:00;52.17;;;19.47;;
75441;SDS011;64019;48.312;14.226;2022-10-31T03:00:33;49.20;;;18.03;;
75441;SDS011;64019;48.312;14.226;2022-10-31T03:03:23;61.73;;;19.60;;
75441;SDS011;64019;48.312;14.226;2022-10-31T03:11:53;56.10;;;20.30;;
75441;SDS011;64019;48.312;14.226;2022-10-31T03:18:16;65.97;;;22.00;;
75441;SDS011;64019;48.312;14.226;2022-10-31T03:20:59;60.17;;;22.37;;
75441;SDS011;64019;48.312;14.226;2022-10-31T03:23:29;75.30;;;21.97;;
75441;SDS011;64019;48.312;14.226;2022-10-31T03:25:56;55.43;;;21.10;;
75441;SDS011;64019;48.312;14.226;2022-10-31T03:28:28;62.27;;;20.70;;
75441;SDS011;64019;48.312;14.226;2022-10-31T03:30:58;80.47;;;21.87;;
75441;SDS011;64019;48.312;14.226;2022-10-31T03:33:27;68.53;;;21.10;;
75441;SDS011;64019;48.312;14.226;2022-10-31T03:35:55;63.27;;;21.63;;
75441;SDS011;64019;48.312;14.226;2022-10-31T03:38:26;50.67;;;21.10;;
75441;SDS011;64019;48.312;14.226;2022-10-31T03:40:53;56.57;;;21.53;;
75441;SDS011;64019;48.312;14.226;2022-10-31T03:43:24;50.03;;;20.03;;
75441;SDS011;64019;48.312;14.226;2022-10-31T03:45:53;59.13;;;21.10;;
75441;SDS011;64019;48.312;14.226;2022-10-31T03:48:19;66.20;;;22.43;;
75441;SDS011;64019;48.312;14.226;2022-10-31T03:50:56;63.47;;;20.93;;
75441;SDS011;64019;48.312;14.226;2022-10-31T03:53:28;47.53;;;19.90;;
75441;SDS011;64019;48.312;14.226;2022-10-31T03:58:35;56.67;;;20.50;;
75441;SDS011;64019;48.312;14.226;2022-10-31T04:01:06;55.00;;;21.57;;
75441;SDS011;64019;48.312;14.226;2022-10-31T04:03:37;57.40;;;18.90;;
75441;SDS011;64019;48.312;14.226;2022-10-31T04:06:05;51.50;;;18.93;;
75441;SDS011;64019;48.312;14.226;2022-10-31T04:08:36;42.87;;;18.30;;
75441;SDS011;64019;48.312;14.226;2022-10-31T04:11:06;45.07;;;17.87;;
75441;SDS011;64019;48.312;14.226;2022-10-31T04:13:34;41.17;;;17.13;;
75441;SDS011;64019;48.312;14.226;2022-10-31T04:16:02;40.00;;;17.17;;
75441;SDS011;64019;48.312;14.226;2022-10-31T04:18:29;42.47;;;17.23;;
75441;SDS011;64019;48.312;14.226;2022-10-31T04:21:02;40.07;;;15.73;;
75441;SDS011;64019;48.312;14.226;2022-10-31T04:23:30;47.07;;;16.33;;
75441;SDS011;64019;48.312;14.226;2022-10-31T04:25:56;41.27;;;14.97;;
75441;SDS011;64019;48.312;14.226;2022-10-31T04:28:22;36.47;;;15.50;;
75441;SDS011;64019;48.312;14.226;2022-10-31T04:30:48;42.40;;;15.10;;
75441;SDS011;64019;48.312;14.226;2022-10-31T04:33:14;38.90;;;14.47;;
75441;SDS011;64019;48.312;14.226;2022-10-31T04:35:40;31.17;;;14.20;;
75441;SDS011;64019;48.312;14.226;2022-10-31T04:38:06;29.77;;;13.10;;
75441;SDS011;64019;48.312;14.226;2022-10-31T04:40:31;30.07;;;13.70;;
75441;SDS011;64019;48.312;14.226;2022-10-31T04:42:57;36.10;;;13.87;;
75441;SDS011;64019;48.312;14.226;2022-10-31T04:45:23;36.10;;;13.33;;
75441;SDS011;64019;48.312;14.226;2022-10-31T04:47:48;40.63;;;13.30;;
75441;SDS011;64019;48.312;14.226;2022-10-31T04:50:14;37.53;;;13.17;;
75441;SDS011;64019;48.312;14.226;2022-10-31T04:52:43;35.17;;;14.23;;
75441;SDS011;64019;48.312;14.226;2022-10-31T04:55:10;33.53;;;15.00;;
75441;SDS011;64019;48.312;14.226;2022-10-31T04:57:44;29.40;;;14.40;;
75441;SDS011;64019;48.312;14.226;2022-10-31T05:00:11;31.03;;;13.90;;
75441;SDS011;64019;48.312;14.226;2022-10-31T05:02:48;39.60;;;13.83;;
75441;SDS011;64019;48.312;14.226;2022-10-31T05:05:16;42.60;;;14.00;;
75441;SDS011;64019;48.312;14.226;2022-10-31T05:07:43;37.53;;;12.83;;
75441;SDS011;64019;48.312;14.226;2022-10-31T05:10:10;38.93;;;14.57;;
75441;SDS011;64019;48.312;14.226;2022-10-31T05:12:37;40.67;;;14.27;;
75441;SDS011;64019;48.312;14.226;2022-10-31T05:15:10;42.43;;;13.70;;
75441;SDS011;64019;48.312;14.226;2022-10-31T05:17:35;35.80;;;13.97;;
75441;SDS011;64019;48.312;14.226;2022-10-31T05:20:01;34.00;;;14.10;;
75441;SDS011;64019;48.312;14.226;2022-10-31T05:22:26;42.93;;;16.03;;
75441;SDS011;64019;48.312;14.226;2022-10-31T05:24:52;45.07;;;16.30;;
75441;SDS011;64019;48.312;14.226;2022-10-31T05:27:18;42.70;;;16.50;;
75441;SDS011;64019;48.312;14.226;2022-10-31T05:29:43;39.83;;;15.27;;
75441;SDS011;64019;48.312;14.226;2022-10-31T05:32:09;45.43;;;14.90;;
75441;SDS011;64019;48.312;14.226;2022-10-31T05:34:35;46.23;;;16.00;;
75441;SDS011;64019;48.312;14.226;2022-10-31T05:37:00;39.50;;;15.93;;
75441;SDS011;64019;48.312;14.226;2022-10-31T05:39:26;46.33;;;14.90;;
75441;SDS011;64019;48.312;14.226;2022-10-31T05:41:51;36.70;;;14.47;;
75441;SDS011;64019;48.312;14.226;2022-10-31T05:44:17;38.57;;;13.80;;
75441;SDS011;64019;48.312;14.226;2022-10-31T05:46:43;38.47;;;15.23;;
75441;SDS011;64019;48.312;14.226;2022-10-31T05:49:08;36.40;;;14.30;;
75441;SDS011;64019;48.312;14.226;2022-10-31T05:51:34;33.60;;;13.53;;
75441;SDS011;64019;48.312;14.226;2022-10-31T05:53:59;32.40;;;14.77;;
75441;SDS011;64019;48.312;14.226;2022-10-31T05:56:25;41.93;;;15.83;;
75441;SDS011;64019;48.312;14.226;2022-10-31T05:58:51;30.23;;;13.63;;
75441;SDS011;64019;48.312;14.226;2022-10-31T06:01:16;29.60;;;13.97;;
75441;SDS011;64019;48.312;14.226;2022-10-31T06:03:42;36.70;;;13.90;;
75441;SDS011;64019;48.312;14.226;2022-10-31T06:06:08;37.20;;;14.53;;
75441;SDS011;64019;48.312;14.226;2022-10-31T06:08:33;31.40;;;13.60;;
75441;SDS011;64019;48.312;14.226;2022-10-31T06:10:59;34.93;;;14.17;;
75441;SDS011;64019;48.312;14.226;2022-10-31T06:13:24;32.73;;;14.80;;
75441;SDS011;64019;48.312;14.226;2022-10-31T06:15:50;30.83;;;14.27;;
75441;SDS011;64019;48.312;14.226;2022-10-31T06:18:16;31.73;;;14.60;;
75441;SDS011;64019;48.312;14.226;2022-10-31T06:20:41;28.33;;;13.97;;
75441;SDS011;64019;48.312;14.226;2022-10-31T06:23:07;31.77;;;13.90;;
75441;SDS011;64019;48.312;14.226;2022-10-31T06:25:33;44.57;;;13.67;;
75441;SDS011;64019;48.312;14.226;2022-10-31T06:27:59;34.00;;;14.23;;
75441;SDS011;64019;48.312;14.226;2022-10-31T06:30:25;35.03;;;15.40;;
75441;SDS011;64019;48.312;14.226;2022-10-31T06:32:50;30.17;;;14.20;;
75441;SDS011;64019;48.312;14.226;2022-10-31T06:35:16;29.30;;;12.60;;
75441;SDS011;64019;48.312;14.226;2022-10-31T06:37:42;33.00;;;13.23;;
75441;SDS011;64019;48.312;14.226;2022-10-31T06:40:15;33.80;;;14.00;;
75441;SDS011;64019;48.312;14.226;2022-10-31T06:42:40;30.00;;;13.73;;
75441;SDS011;64019;48.312;14.226;2022-10-31T06:45:06;35.37;;;13.47;;
75441;SDS011;64019;48.312;14.226;2022-10-31T06:47:32;26.80;;;12.57;;
75441;SDS011;64019;48.312;14.226;2022-10-31T06:49:58;25.83;;;13.23;;
75441;SDS011;64019;48.312;14.226;2022-10-31T06:52:23;29.67;;;12.50;;
75441;SDS011;64019;48.312;14.226;2022-10-31T06:54:49;30.27;;;11.40;;
75441;SDS011;64019;48.312;14.226;2022-10-31T06:57:14;25.70;;;12.53;;
75441;SDS011;64019;48.312;14.226;2022-10-31T06:59:40;28.50;;;13.07;;
75441;SDS011;64019;48.312;14.226;2022-10-31T07:02:07;29.67;;;12.90;;
75441;SDS011;64019;48.312;14.226;2022-10-31T07:04:35;32.43;;;12.50;;
75441;SDS011;64019;48.312;14.226;2022-10-31T07:07:01;25.33;;;12.03;;
75441;SDS011;64019;48.312;14.226;2022-10-31T07:09:26;25.73;;;12.60;;
75441;SDS011;64019;48.312;14.226;2022-10-31T07:11:52;31.07;;;13.37;;
75441;SDS011;64019;48.312;14.226;2022-10-31T07:14:18;29.57;;;13.47;;
75441;SDS011;64019;48.312;14.226;2022-10-31T07:16:47;29.07;;;13.07;;
75441;SDS011;64019;48.312;14.226;2022-10-31T07:19:14;24.60;;;12.27;;
75441;SDS011;64019;48.312;14.226;2022-10-31T07:21:40;21.30;;;11.47;;
75441;SDS011;64019;48.312;14.226;2022-10-31T07:24:06;24.13;;;10.90;;
75441;SDS011;64019;48.312;14.226;2022-10-31T07:26:31;22.80;;;11.33;;
75441;SDS011;64019;48.312;14.226;2022-10-31T07:28:57;18.97;;;9.93;;
75441;SDS011;64019;48.312;14.226;2022-10-31T07:31:24;24.37;;;11.97;;
75441;SDS011;64019;48.312;14.226;2022-10-31T07:33:50;24.77;;;10.93;;
75441;SDS011;64019;48.312;14.226;2022-10-31T07:36:16;26.60;;;12.27;;
75441;SDS011;64019;48.312;14.226;2022-10-31T07:38:41;26.67;;;12.73;;
75441;SDS011;64019;48.312;14.226;2022-10-31T07:41:07;23.47;;;10.80;;
75441;SDS011;64019;48.312;14.226;2022-10-31T07:43:33;31.80;;;12.20;;
75441;SDS011;64019;48.312;14.226;2022-10-31T07:45:59;23.47;;;11.77;;
75441;SDS011;64019;48.312;14.226;2022-10-31T07:48:25;25.93;;;11.80;;
75441;SDS011;64019;48.312;14.226;2022-10-31T07:50:50;31.87;;;12.57;;
75441;SDS011;64019;48.312;14.226;2022-10-31T07:53:16;31.83;;;11.87;;
75441;SDS011;64019;48.312;14.226;2022-10-31T07:55:42;33.30;;;12.00;;
75441;SDS011;64019;48.312;14.226;2022-10-31T07:58:09;31.20;;;13.67;;
75441;SDS011;64019;48.312;14.226;2022-10-31T08:00:39;30.17;;;12.83;;
75441;SDS011;64019;48.312;14.226;2022-10-31T08:03:08;31.57;;;12.17;;
75441;SDS011;64019;48.312;14.226;2022-10-31T08:05:35;26.03;;;12.37;;
75441;SDS011;64019;48.312;14.226;2022-10-31T08:08:01;29.77;;;12.10;;
75441;SDS011;64019;48.312;14.226;2022-10-31T08:10:29;33.03;;;12.40;;
75441;SDS011;64019;48.312;14.226;2022-10-31T08:12:58;25.53;;;11.50;;
75441;SDS011;64019;48.312;14.226;2022-10-31T08:15:28;24.13;;;11.37;;
75441;SDS011;64019;48.312;14.226;2022-10-31T08:17:54;26.37;;;12.27;;
75441;SDS011;64019;48.312;14.226;2022-10-31T08:20:20;25.40;;;11.97;;
75441;SDS011;64019;48.312;14.226;2022-10-31T08:22:58;29.37;;;12.43;;
75441;SDS011;64019;48.312;14.226;2022-10-31T08:25:25;26.90;;;12.47;;
75441;SDS011;64019;48.312;14.226;2022-10-31T08:27:53;37.37;;;13.77;;
75441;SDS011;64019;48.312;14.226;2022-10-31T08:30:20;26.93;;;12.33;;
75441;SDS011;64019;48.312;14.226;2022-10-31T08:32:47;24.03;;;12.10;;
75441;SDS011;64019;48.312;14.226;2022-10-31T08:35:21;28.67;;;12.37;;
75441;SDS011;64019;48.312;14.226;2022-10-31T08:37:51;27.87;;;12.33;;
75441;SDS011;64019;48.312;14.226;2022-10-31T08:40:20;31.60;;;13.33;;
75441;SDS011;64019;48.312;14.226;2022-10-31T08:42:47;28.20;;;12.47;;
75441;SDS011;64019;48.312;14.226;2022-10-31T08:45:12;39.80;;;14.00;;
75441;SDS011;64019;48.312;14.226;2022-10-31T08:47:38;36.87;;;13.40;;
75441;SDS011;64019;48.312;14.226;2022-10-31T08:50:04;34.87;;;14.67;;
75441;SDS011;64019;48.312;14.226;2022-10-31T08:52:30;33.30;;;13.97;;
75441;SDS011;64019;48.312;14.226;2022-10-31T08:54:56;36.90;;;14.37;;
75441;SDS011;64019;48.312;14.226;2022-10-31T08:57:21;30.03;;;14.47;;
75441;SDS011;64019;48.312;14.226;2022-10-31T08:59:47;36.50;;;15.70;;
75441;SDS011;64019;48.312;14.226;2022-10-31T09:02:12;33.67;;;15.77;;
75441;SDS011;64019;48.312;14.226;2022-10-31T09:04:38;38.00;;;15.93;;
75441;SDS011;64019;48.312;14.226;2022-10-31T09:07:04;35.27;;;15.67;;
75441;SDS011;64019;48.312;14.226;2022-10-31T09:09:29;30.90;;;14.03;;
75441;SDS011;64019;48.312;14.226;2022-10-31T09:11:55;33.70;;;14.67;;
75441;SDS011;64019;48.312;14.226;2022-10-31T09:14:21;35.27;;;16.10;;
75441;SDS011;64019;48.312;14.226;2022-10-31T09:16:46;33.77;;;15.57;;
75441;SDS011;64019;48.312;14.226;2022-10-31T09:19:12;31.07;;;15.27;;
75441;SDS011;64019;48.312;14.226;2022-10-31T09:21:37;36.50;;;15.73;;
75441;SDS011;64019;48.312;14.226;2022-10-31T09:24:03;35.80;;;16.07;;
75441;SDS011;64019;48.312;14.226;2022-10-31T09:26:29;37.43;;;16.20;;
75441;SDS011;64019;48.312;14.226;2022-10-31T09:28:55;36.37;;;15.83;;
75441;SDS011;64019;48.312;14.226;2022-10-31T09:31:22;33.13;;;14.67;;
75441;SDS011;64019;48.312;14.226;2022-10-31T09:33:48;34.57;;;15.27;;
75441;SDS011;64019;48.312;14.226;2022-10-31T09:36:13;34.67;;;15.50;;
75441;SDS011;64019;48.312;14.226;2022-10-31T09:38:39;35.23;;;15.47;;
75441;SDS011;64019;48.312;14.226;2022-10-31T09:44:07;39.27;;;15.63;;
75441;SDS011;64019;48.312;14.226;2022-10-31T09:47:02;37.57;;;16.40;;
75441;SDS011;64019;48.312;14.226;2022-10-31T09:54:52;39.10;;;16.60;;
75441;SDS011;64019;48.312;14.226;2022-10-31T09:57:44;40.00;;;15.90;;
75441;SDS011;64019;48.312;14.226;2022-10-31T10:00:16;38.73;;;16.37;;
75441;SDS011;64019;48.312;14.226;2022-10-31T10:02:47;39.60;;;17.63;;
75441;SDS011;64019;48.312;14.226;2022-10-31T10:05:22;44.23;;;16.80;;
75441;SDS011;64019;48.312;14.226;2022-10-31T10:16:38;45.17;;;18.33;;
75441;SDS011;64019;48.312;14.226;2022-10-31T10:29:45;57.47;;;21.30;;
75441;SDS011;64019;48.312;14.226;2022-10-31T10:32:19;49.10;;;19.87;;
75441;SDS011;64019;48.312;14.226;2022-10-31T10:34:51;54.50;;;21.87;;
75441;SDS011;64019;48.312;14.226;2022-10-31T10:40:34;53.07;;;21.73;;
75441;SDS011;64019;48.312;14.226;2022-10-31T10:42:43;51.90;;;21.77;;
75441;SDS011;64019;48.312;14.226;2022-10-31T10:45:34;54.97;;;20.67;;
75441;SDS011;64019;48.312;14.226;2022-10-31T10:50:58;50.63;;;20.40;;
75441;SDS011;64019;48.312;14.226;2022-10-31T10:56:56;65.33;;;23.17;;
75441;SDS011;64019;48.312;14.226;2022-10-31T10:59:29;63.37;;;24.37;;
75441;SDS011;64019;48.312;14.226;2022-10-31T11:01:56;69.60;;;26.23;;
75441;SDS011;64019;48.312;14.226;2022-10-31T11:04:31;67.03;;;25.17;;
75441;SDS011;64019;48.312;14.226;2022-10-31T11:07:03;84.77;;;28.37;;
75441;SDS011;64019;48.312;14.226;2022-10-31T11:09:30;78.87;;;28.20;;
75441;SDS011;64019;48.312;14.226;2022-10-31T11:11:56;70.87;;;26.77;;
75441;SDS011;64019;48.312;14.226;2022-10-31T11:14:23;75.53;;;28.00;;
75441;SDS011;64019;48.312;14.226;2022-10-31T11:16:54;69.90;;;26.80;;
75441;SDS011;64019;48.312;14.226;2022-10-31T11:19:32;73.83;;;26.70;;
75441;SDS011;64019;48.312;14.226;2022-10-31T11:22:08;73.60;;;27.70;;
75441;SDS011;64019;48.312;14.226;2022-10-31T11:24:41;70.67;;;26.87;;
75441;SDS011;64019;48.312;14.226;2022-10-31T11:27:23;67.47;;;26.53;;
75441;SDS011;64019;48.312;14.226;2022-10-31T11:29:50;67.70;;;25.00;;
75441;SDS011;64019;48.312;14.226;2022-10-31T11:32:17;73.20;;;26.70;;
75441;SDS011;64019;48.312;14.226;2022-10-31T11:34:49;69.10;;;26.10;;
75441;SDS011;64019;48.312;14.226;2022-10-31T11:37:22;72.87;;;25.93;;
75441;SDS011;64019;48.312;14.226;2022-10-31T11:39:54;62.83;;;25.70;;
75441;SDS011;64019;48.312;14.226;2022-10-31T11:42:25;67.33;;;27.10;;
75441;SDS011;64019;48.312;14.226;2022-10-31T11:44:54;64.07;;;24.57;;
75441;SDS011;64019;48.312;14.226;2022-10-31T11:47:25;68.17;;;25.33;;
75441;SDS011;64019;48.312;14.226;2022-10-31T11:49:57;60.03;;;24.40;;
75441;SDS011;64019;48.312;14.226;2022-10-31T11:52:36;62.07;;;24.93;;
75441;SDS011;64019;48.312;14.226;2022-10-31T11:57:42;64.07;;;24.13;;
75441;SDS011;64019;48.312;14.226;2022-10-31T12:00:29;75.33;;;25.10;;
75441;SDS011;64019;48.312;14.226;2022-10-31T12:03:10;69.70;;;25.63;;
75441;SDS011;64019;48.312;14.226;2022-10-31T12:05:36;71.73;;;24.30;;
75441;SDS011;64019;48.312;14.226;2022-10-31T12:08:04;73.17;;;25.93;;
75441;SDS011;64019;48.312;14.226;2022-10-31T12:10:39;68.70;;;24.57;;
75441;SDS011;64019;48.312;14.226;2022-10-31T12:13:34;63.47;;;24.83;;
75441;SDS011;64019;48.312;14.226;2022-10-31T12:18:56;70.97;;;27.43;;
75441;SDS011;64019;48.312;14.226;2022-10-31T12:27:19;61.60;;;22.60;;
75441;SDS011;64019;48.312;14.226;2022-10-31T12:40:44;62.23;;;23.63;;
75441;SDS011;64019;48.312;14.226;2022-10-31T12:43:47;63.33;;;24.63;;
75441;SDS011;64019;48.312;14.226;2022-10-31T13:00:26;52.43;;;20.90;;
75441;SDS011;64019;48.312;14.226;2022-10-31T13:03:38;61.00;;;22.53;;
75441;SDS011;64019;48.312;14.226;2022-10-31T13:05:43;57.67;;;23.87;;
75441;SDS011;64019;48.312;14.226;2022-10-31T13:08:34;63.07;;;22.87;;
75441;SDS011;64019;48.312;14.226;2022-10-31T13:11:09;67.87;;;23.83;;
75441;SDS011;64019;48.312;14.226;2022-10-31T13:16:40;66.70;;;25.23;;
75441;SDS011;64019;48.312;14.226;2022-10-31T13:19:51;60.23;;;22.80;;
75441;SDS011;64019;48.312;14.226;2022-10-31T13:27:25;57.17;;;23.00;;
75441;SDS011;64019;48.312;14.226;2022-10-31T13:32:28;58.30;;;23.17;;
75441;SDS011;64019;48.312;14.226;2022-10-31T13:35:02;65.97;;;24.60;;
75441;SDS011;64019;48.312;14.226;2022-10-31T13:37:40;61.97;;;25.63;;
75441;SDS011;64019;48.312;14.226;2022-10-31T13:45:46;57.13;;;23.23;;
75441;SDS011;64019;48.312;14.226;2022-10-31T13:50:42;67.43;;;23.40;;
75441;SDS011;64019;48.312;14.226;2022-10-31T13:53:20;62.13;;;24.90;;
75441;SDS011;64019;48.312;14.226;2022-10-31T13:56:02;68.70;;;26.87;;
75441;SDS011;64019;48.312;14.226;2022-10-31T13:58:34;69.33;;;24.97;;
75441;SDS011;64019;48.312;14.226;2022-10-31T14:03:35;73.27;;;25.03;;
75441;SDS011;64019;48.312;14.226;2022-10-31T14:06:03;73.10;;;25.17;;
75441;SDS011;64019;48.312;14.226;2022-10-31T14:08:33;68.40;;;24.20;;
75441;SDS011;64019;48.312;14.226;2022-10-31T14:11:01;67.30;;;25.43;;
75441;SDS011;64019;48.312;14.226;2022-10-31T14:13:32;69.93;;;25.27;;
75441;SDS011;64019;48.312;14.226;2022-10-31T14:16:02;76.80;;;25.17;;
75441;SDS011;64019;48.312;14.226;2022-10-31T14:18:37;74.23;;;27.53;;
75441;SDS011;64019;48.312;14.226;2022-10-31T14:23:47;70.63;;;25.37;;
75441;SDS011;64019;48.312;14.226;2022-10-31T14:28:52;79.07;;;27.70;;
75441;SDS011;64019;48.312;14.226;2022-10-31T14:34:52;83.73;;;27.57;;
75441;SDS011;64019;48.312;14.226;2022-10-31T14:45:08;99.90;;;28.50;;
75441;SDS011;64019;48.312;14.226;2022-10-31T14:50:52;78.60;;;28.27;;
75441;SDS011;64019;48.312;14.226;2022-10-31T14:53:30;90.23;;;29.90;;
75441;SDS011;64019;48.312;14.226;2022-10-31T14:55:58;81.03;;;28.80;;
75441;SDS011;64019;48.312;14.226;2022-10-31T14:58:26;79.70;;;28.70;;
75441;SDS011;64019;48.312;14.226;2022-10-31T15:01:05;87.87;;;30.40;;
75441;SDS011;64019;48.312;14.226;2022-10-31T15:03:33;95.43;;;30.50;;
75441;SDS011;64019;48.312;14.226;2022-10-31T15:06:03;81.50;;;29.00;;
75441;SDS011;64019;48.312;14.226;2022-10-31T15:08:45;91.87;;;29.37;;
75441;SDS011;64019;48.312;14.226;2022-10-31T15:11:19;89.20;;;29.27;;
75441;SDS011;64019;48.312;14.226;2022-10-31T15:13:50;90.97;;;29.50;;
75441;SDS011;64019;48.312;14.226;2022-10-31T15:16:19;90.10;;;31.37;;
75441;SDS011;64019;48.312;14.226;2022-10-31T15:18:48;87.47;;;29.60;;
75441;SDS011;64019;48.312;14.226;2022-10-31T15:21:18;86.30;;;30.23;;
75441;SDS011;64019;48.312;14.226;2022-10-31T15:23:45;84.20;;;29.23;;
75441;SDS011;64019;48.312;14.226;2022-10-31T15:26:17;86.97;;;31.37;;
75441;SDS011;64019;48.312;14.226;2022-10-31T15:28:45;84.37;;;31.13;;
75441;SDS011;64019;48.312;14.226;2022-10-31T15:31:22;89.33;;;30.37;;
75441;SDS011;64019;48.312;14.226;2022-10-31T15:33:48;99.40;;;29.37;;
75441;SDS011;64019;48.312;14.226;2022-10-31T15:36:19;83.50;;;29.47;;
75441;SDS011;64019;48.312;14.226;2022-10-31T15:38:47;86.90;;;28.90;;
75441;SDS011;64019;48.312;14.226;2022-10-31T15:44:00;98.23;;;30.87;;
75441;SDS011;64019;48.312;14.226;2022-10-31T15:46:53;94.10;;;29.43;;
75441;SDS011;64019;48.312;14.226;2022-10-31T15:49:46;85.37;;;29.43;;
75441;SDS011;64019;48.312;14.226;2022-10-31T15:52:38;84.70;;;30.93;;
75441;SDS011;64019;48.312;14.226;2022-10-31T15:57:42;106.07;;;38.63;;
75441;SDS011;64019;48.312;14.226;2022-10-31T16:02:49;119.07;;;45.53;;
75441;SDS011;64019;48.312;14.226;2022-10-31T16:05:18;118.90;;;44.00;;
75441;SDS011;64019;48.312;14.226;2022-10-31T16:07:48;96.90;;;36.77;;
75441;SDS011;64019;48.312;14.226;2022-10-31T16:10:22;88.73;;;36.33;;
75441;SDS011;64019;48.312;14.226;2022-10-31T16:12:50;94.77;;;34.53;;
75441;SDS011;64019;48.312;14.226;2022-10-31T16:15:16;107.23;;;36.17;;
75441;SDS011;64019;48.312;14.226;2022-10-31T16:17:44;119.40;;;38.87;;
75441;SDS011;64019;48.312;14.226;2022-10-31T16:20:20;116.03;;;39.37;;
75441;SDS011;64019;48.312;14.226;2022-10-31T16:22:50;83.40;;;30.83;;
75441;SDS011;64019;48.312;14.226;2022-10-31T16:25:34;89.80;;;31.87;;
75441;SDS011;64019;48.312;14.226;2022-10-31T16:28:03;100.20;;;30.03;;
75441;SDS011;64019;48.312;14.226;2022-10-31T16:38:56;81.17;;;27.60;;
75441;SDS011;64019;48.312;14.226;2022-10-31T16:41:22;88.30;;;27.97;;
75441;SDS011;64019;48.312;14.226;2022-10-31T16:43:49;98.40;;;28.03;;
75441;SDS011;64019;48.312;14.226;2022-10-31T16:46:16;80.07;;;27.20;;
75441;SDS011;64019;48.312;14.226;2022-10-31T16:48:46;85.93;;;26.67;;
75441;SDS011;64019;48.312;14.226;2022-10-31T16:51:12;74.23;;;26.77;;
75441;SDS011;64019;48.312;14.226;2022-10-31T16:53:38;80.20;;;26.63;;
75441;SDS011;64019;48.312;14.226;2022-10-31T16:56:03;66.40;;;25.67;;
75441;SDS011;64019;48.312;14.226;2022-10-31T16:58:33;75.80;;;28.10;;
75441;SDS011;64019;48.312;14.226;2022-10-31T17:01:00;76.60;;;28.53;;
75441;SDS011;64019;48.312;14.226;2022-10-31T17:03:28;71.87;;;27.40;;